sensor_id;sensor_type;location;lat;lon;timestamp;P1;durP1;ratioP1;P2;durP2;ratioP2
23712;SDS011;12035;49.978;8.298;2024-01-07T00:01:11;2.65;;;1.50;;
23712;SDS011;12035;49.978;8.298;2024-01-07T00:06:08;3.25;;;1.73;;
23712;SDS011;12035;49.978;8.298;2024-01-07T00:11:06;3.20;;;1.70;;
23712;SDS011;12035;49.978;8.298;2024-01-07T00:16:04;2.85;;;1.70;;
23712;SDS011;12035;49.978;8.298;2024-01-07T00:21:03;3.53;;;1.65;;
23712;SDS011;12035;49.978;8.298;2024-01-07T00:26:00;3.70;;;1.95;;
23712;SDS011;12035;49.978;8.298;2024-01-07T00:30:58;3.53;;;1.75;;
23712;SDS011;12035;49.978;8.298;2024-01-07T00:35:55;3.75;;;2.00;;
23712;SDS011;12035;49.978;8.298;2024-01-07T00:40:53;3.78;;;2.15;;
23712;SDS011;12035;49.978;8.298;2024-01-07T00:45:50;3.83;;;2.10;;
23712;SDS011;12035;49.978;8.298;2024-01-07T00:50:47;4.18;;;2.30;;
23712;SDS011;12035;49.978;8.298;2024-01-07T00:55:44;3.97;;;2.40;;
23712;SDS011;12035;49.978;8.298;2024-01-07T01:00:42;3.50;;;2.05;;
23712;SDS011;12035;49.978;8.298;2024-01-07T01:05:39;4.13;;;2.20;;
23712;SDS011;12035;49.978;8.298;2024-01-07T01:10:36;4.25;;;2.33;;
23712;SDS011;12035;49.978;8.298;2024-01-07T01:15:33;4.10;;;2.50;;
23712;SDS011;12035;49.978;8.298;2024-01-07T01:20:32;3.70;;;2.28;;
23712;SDS011;12035;49.978;8.298;2024-01-07T01:25:29;5.03;;;2.83;;
23712;SDS011;12035;49.978;8.298;2024-01-07T01:30:26;5.10;;;3.00;;
23712;SDS011;12035;49.978;8.298;2024-01-07T01:35:25;4.28;;;2.42;;
23712;SDS011;12035;49.978;8.298;2024-01-07T01:40:26;5.22;;;2.78;;
23712;SDS011;12035;49.978;8.298;2024-01-07T01:45:22;4.40;;;2.45;;
23712;SDS011;12035;49.978;8.298;2024-01-07T01:50:19;4.53;;;2.70;;
23712;SDS011;12035;49.978;8.298;2024-01-07T01:55:18;4.35;;;2.63;;
23712;SDS011;12035;49.978;8.298;2024-01-07T02:00:17;4.00;;;2.50;;
23712;SDS011;12035;49.978;8.298;2024-01-07T02:05:15;4.30;;;2.83;;
23712;SDS011;12035;49.978;8.298;2024-01-07T02:10:13;4.35;;;3.05;;
23712;SDS011;12035;49.978;8.298;2024-01-07T02:15:10;4.65;;;2.90;;
23712;SDS011;12035;49.978;8.298;2024-01-07T02:20:08;5.10;;;3.03;;
23712;SDS011;12035;49.978;8.298;2024-01-07T02:25:08;4.57;;;2.78;;
23712;SDS011;12035;49.978;8.298;2024-01-07T02:30:05;4.88;;;2.60;;
23712;SDS011;12035;49.978;8.298;2024-01-07T02:35:04;3.95;;;2.63;;
23712;SDS011;12035;49.978;8.298;2024-01-07T02:40:01;3.65;;;2.53;;
23712;SDS011;12035;49.978;8.298;2024-01-07T02:45:00;4.82;;;2.38;;
23712;SDS011;12035;49.978;8.298;2024-01-07T02:49:57;3.65;;;2.33;;
23712;SDS011;12035;49.978;8.298;2024-01-07T02:54:54;3.88;;;2.40;;
23712;SDS011;12035;49.978;8.298;2024-01-07T02:59:51;3.55;;;2.15;;
23712;SDS011;12035;49.978;8.298;2024-01-07T03:04:50;3.63;;;2.45;;
23712;SDS011;12035;49.978;8.298;2024-01-07T03:09:47;3.45;;;2.10;;
23712;SDS011;12035;49.978;8.298;2024-01-07T03:14:45;3.47;;;2.33;;
23712;SDS011;12035;49.978;8.298;2024-01-07T03:19:42;4.22;;;2.17;;
23712;SDS011;12035;49.978;8.298;2024-01-07T03:24:40;3.67;;;2.28;;
23712;SDS011;12035;49.978;8.298;2024-01-07T03:29:38;3.33;;;2.03;;
23712;SDS011;12035;49.978;8.298;2024-01-07T03:34:36;4.00;;;2.40;;
23712;SDS011;12035;49.978;8.298;2024-01-07T03:39:34;3.90;;;2.17;;
23712;SDS011;12035;49.978;8.298;2024-01-07T03:44:33;2.85;;;1.83;;
23712;SDS011;12035;49.978;8.298;2024-01-07T03:49:30;4.13;;;2.05;;
23712;SDS011;12035;49.978;8.298;2024-01-07T03:54:27;3.78;;;2.17;;
23712;SDS011;12035;49.978;8.298;2024-01-07T03:59:24;3.78;;;2.20;;
23712;SDS011;12035;49.978;8.298;2024-01-07T04:04:23;3.42;;;1.92;;
23712;SDS011;12035;49.978;8.298;2024-01-07T04:09:20;2.60;;;1.60;;
23712;SDS011;12035;49.978;8.298;2024-01-07T04:14:17;3.75;;;2.05;;
23712;SDS011;12035;49.978;8.298;2024-01-07T04:19:14;3.83;;;2.22;;
23712;SDS011;12035;49.978;8.298;2024-01-07T04:24:12;2.90;;;1.80;;
23712;SDS011;12035;49.978;8.298;2024-01-07T04:29:09;3.47;;;2.13;;
23712;SDS011;12035;49.978;8.298;2024-01-07T04:34:07;3.58;;;1.90;;
23712;SDS011;12035;49.978;8.298;2024-01-07T04:39:03;5.10;;;2.42;;
23712;SDS011;12035;49.978;8.298;2024-01-07T04:44:03;3.88;;;2.40;;
23712;SDS011;12035;49.978;8.298;2024-01-07T04:49:00;3.60;;;2.40;;
23712;SDS011;12035;49.978;8.298;2024-01-07T04:53:57;3.42;;;2.00;;
23712;SDS011;12035;49.978;8.298;2024-01-07T04:58:54;4.55;;;2.10;;
23712;SDS011;12035;49.978;8.298;2024-01-07T05:03:52;3.25;;;2.00;;
23712;SDS011;12035;49.978;8.298;2024-01-07T05:08:49;3.08;;;1.65;;
23712;SDS011;12035;49.978;8.298;2024-01-07T05:13:46;2.63;;;1.60;;
23712;SDS011;12035;49.978;8.298;2024-01-07T05:18:43;3.22;;;1.92;;
23712;SDS011;12035;49.978;8.298;2024-01-07T05:23:45;3.20;;;1.95;;
23712;SDS011;12035;49.978;8.298;2024-01-07T05:28:42;2.58;;;1.48;;
23712;SDS011;12035;49.978;8.298;2024-01-07T05:33:39;2.60;;;1.60;;
23712;SDS011;12035;49.978;8.298;2024-01-07T05:38:36;2.47;;;1.50;;
23712;SDS011;12035;49.978;8.298;2024-01-07T05:43:35;3.83;;;1.90;;
23712;SDS011;12035;49.978;8.298;2024-01-07T05:48:40;2.47;;;1.50;;
23712;SDS011;12035;49.978;8.298;2024-01-07T05:53:39;2.72;;;1.52;;
23712;SDS011;12035;49.978;8.298;2024-01-07T05:58:37;2.25;;;1.45;;
23712;SDS011;12035;49.978;8.298;2024-01-07T06:03:34;3.47;;;1.83;;
23712;SDS011;12035;49.978;8.298;2024-01-07T06:08:31;3.15;;;1.70;;
23712;SDS011;12035;49.978;8.298;2024-01-07T06:13:28;3.85;;;1.90;;
23712;SDS011;12035;49.978;8.298;2024-01-07T06:18:27;4.72;;;2.15;;
23712;SDS011;12035;49.978;8.298;2024-01-07T06:23:24;3.97;;;2.22;;
23712;SDS011;12035;49.978;8.298;2024-01-07T06:28:21;4.40;;;1.95;;
23712;SDS011;12035;49.978;8.298;2024-01-07T06:33:18;4.18;;;2.40;;
23712;SDS011;12035;49.978;8.298;2024-01-07T06:38:17;4.45;;;2.60;;
23712;SDS011;12035;49.978;8.298;2024-01-07T06:43:14;4.25;;;2.45;;
23712;SDS011;12035;49.978;8.298;2024-01-07T06:48:11;4.35;;;2.08;;
23712;SDS011;12035;49.978;8.298;2024-01-07T06:53:08;6.10;;;2.53;;
23712;SDS011;12035;49.978;8.298;2024-01-07T06:58:07;4.55;;;2.53;;
23712;SDS011;12035;49.978;8.298;2024-01-07T07:03:04;4.95;;;2.80;;
23712;SDS011;12035;49.978;8.298;2024-01-07T07:08:01;5.93;;;3.38;;
23712;SDS011;12035;49.978;8.298;2024-01-07T07:12:58;7.43;;;4.05;;
23712;SDS011;12035;49.978;8.298;2024-01-07T07:17:57;8.15;;;4.85;;
23712;SDS011;12035;49.978;8.298;2024-01-07T07:22:54;6.85;;;4.40;;
23712;SDS011;12035;49.978;8.298;2024-01-07T07:27:51;7.20;;;3.95;;
23712;SDS011;12035;49.978;8.298;2024-01-07T07:32:48;7.20;;;4.30;;
23712;SDS011;12035;49.978;8.298;2024-01-07T07:37:46;5.97;;;3.70;;
23712;SDS011;12035;49.978;8.298;2024-01-07T07:42:43;6.13;;;3.35;;
23712;SDS011;12035;49.978;8.298;2024-01-07T07:47:40;4.72;;;3.10;;
23712;SDS011;12035;49.978;8.298;2024-01-07T07:52:41;5.85;;;3.55;;
23712;SDS011;12035;49.978;8.298;2024-01-07T07:57:40;5.57;;;3.38;;
23712;SDS011;12035;49.978;8.298;2024-01-07T08:02:36;8.77;;;5.22;;
23712;SDS011;12035;49.978;8.298;2024-01-07T08:07:33;5.75;;;3.80;;
23712;SDS011;12035;49.978;8.298;2024-01-07T08:12:30;6.38;;;4.20;;
23712;SDS011;12035;49.978;8.298;2024-01-07T08:17:29;6.93;;;4.40;;
23712;SDS011;12035;49.978;8.298;2024-01-07T08:22:26;7.00;;;4.63;;
23712;SDS011;12035;49.978;8.298;2024-01-07T08:27:23;7.85;;;4.53;;
23712;SDS011;12035;49.978;8.298;2024-01-07T08:32:20;10.38;;;5.22;;
23712;SDS011;12035;49.978;8.298;2024-01-07T08:37:19;6.88;;;4.13;;
23712;SDS011;12035;49.978;8.298;2024-01-07T08:42:16;9.52;;;5.38;;
23712;SDS011;12035;49.978;8.298;2024-01-07T08:47:13;10.75;;;5.75;;
23712;SDS011;12035;49.978;8.298;2024-01-07T08:52:10;10.15;;;5.82;;
23712;SDS011;12035;49.978;8.298;2024-01-07T08:57:09;10.65;;;5.55;;
23712;SDS011;12035;49.978;8.298;2024-01-07T09:02:06;11.10;;;5.70;;
23712;SDS011;12035;49.978;8.298;2024-01-07T09:07:03;9.27;;;5.57;;
23712;SDS011;12035;49.978;8.298;2024-01-07T09:12:00;8.40;;;5.15;;
23712;SDS011;12035;49.978;8.298;2024-01-07T09:17:00;8.57;;;5.22;;
23712;SDS011;12035;49.978;8.298;2024-01-07T09:21:57;9.05;;;5.05;;
23712;SDS011;12035;49.978;8.298;2024-01-07T09:26:54;8.38;;;5.60;;
23712;SDS011;12035;49.978;8.298;2024-01-07T09:31:52;9.75;;;5.95;;
23712;SDS011;12035;49.978;8.298;2024-01-07T09:36:56;8.45;;;4.80;;
23712;SDS011;12035;49.978;8.298;2024-01-07T09:41:54;10.60;;;5.90;;
23712;SDS011;12035;49.978;8.298;2024-01-07T09:46:51;10.68;;;5.80;;
23712;SDS011;12035;49.978;8.298;2024-01-07T09:51:50;8.85;;;5.63;;
23712;SDS011;12035;49.978;8.298;2024-01-07T09:56:55;8.60;;;5.32;;
23712;SDS011;12035;49.978;8.298;2024-01-07T10:01:58;9.07;;;5.63;;
23712;SDS011;12035;49.978;8.298;2024-01-07T10:06:57;9.38;;;5.68;;
23712;SDS011;12035;49.978;8.298;2024-01-07T10:11:54;10.00;;;5.90;;
23712;SDS011;12035;49.978;8.298;2024-01-07T10:16:51;9.23;;;5.07;;
23712;SDS011;12035;49.978;8.298;2024-01-07T10:21:59;10.15;;;5.57;;
23712;SDS011;12035;49.978;8.298;2024-01-07T10:26:57;9.40;;;5.47;;
23712;SDS011;12035;49.978;8.298;2024-01-07T10:31:55;9.27;;;5.35;;
23712;SDS011;12035;49.978;8.298;2024-01-07T10:36:53;7.45;;;5.20;;
23712;SDS011;12035;49.978;8.298;2024-01-07T10:41:53;7.35;;;5.10;;
23712;SDS011;12035;49.978;8.298;2024-01-07T10:46:53;8.50;;;5.18;;
23712;SDS011;12035;49.978;8.298;2024-01-07T10:51:56;7.80;;;4.82;;
23712;SDS011;12035;49.978;8.298;2024-01-07T11:02:20;8.05;;;4.70;;
23712;SDS011;12035;49.978;8.298;2024-01-07T11:07:19;7.68;;;4.72;;
23712;SDS011;12035;49.978;8.298;2024-01-07T11:12:34;10.48;;;6.18;;
23712;SDS011;12035;49.978;8.298;2024-01-07T11:17:39;9.10;;;5.10;;
23712;SDS011;12035;49.978;8.298;2024-01-07T11:22:40;9.38;;;5.75;;
23712;SDS011;12035;49.978;8.298;2024-01-07T11:27:38;10.52;;;7.13;;
23712;SDS011;12035;49.978;8.298;2024-01-07T11:32:38;11.50;;;6.80;;
23712;SDS011;12035;49.978;8.298;2024-01-07T11:37:36;14.73;;;8.75;;
23712;SDS011;12035;49.978;8.298;2024-01-07T11:42:32;8.93;;;5.40;;
23712;SDS011;12035;49.978;8.298;2024-01-07T11:47:31;9.90;;;6.10;;
23712;SDS011;12035;49.978;8.298;2024-01-07T11:52:28;8.77;;;5.15;;
23712;SDS011;12035;49.978;8.298;2024-01-07T11:57:26;7.75;;;4.97;;
23712;SDS011;12035;49.978;8.298;2024-01-07T12:02:23;7.90;;;4.82;;
23712;SDS011;12035;49.978;8.298;2024-01-07T12:07:26;10.52;;;5.60;;
23712;SDS011;12035;49.978;8.298;2024-01-07T12:12:24;7.82;;;4.93;;
23712;SDS011;12035;49.978;8.298;2024-01-07T12:17:21;9.05;;;5.50;;
23712;SDS011;12035;49.978;8.298;2024-01-07T12:22:18;9.50;;;5.80;;
23712;SDS011;12035;49.978;8.298;2024-01-07T12:27:16;8.75;;;5.80;;
23712;SDS011;12035;49.978;8.298;2024-01-07T12:32:15;8.07;;;5.03;;
23712;SDS011;12035;49.978;8.298;2024-01-07T12:37:13;10.48;;;6.00;;
23712;SDS011;12035;49.978;8.298;2024-01-07T12:42:10;9.23;;;5.35;;
23712;SDS011;12035;49.978;8.298;2024-01-07T12:47:10;8.70;;;5.28;;
23712;SDS011;12035;49.978;8.298;2024-01-07T12:52:07;9.93;;;5.88;;
23712;SDS011;12035;49.978;8.298;2024-01-07T12:57:04;10.70;;;6.13;;
23712;SDS011;12035;49.978;8.298;2024-01-07T13:02:01;9.73;;;6.13;;
23712;SDS011;12035;49.978;8.298;2024-01-07T13:07:00;14.32;;;7.10;;
23712;SDS011;12035;49.978;8.298;2024-01-07T13:11:57;10.95;;;7.07;;
23712;SDS011;12035;49.978;8.298;2024-01-07T13:16:54;9.90;;;5.35;;
23712;SDS011;12035;49.978;8.298;2024-01-07T13:21:51;11.55;;;6.78;;
23712;SDS011;12035;49.978;8.298;2024-01-07T13:26:51;10.23;;;5.88;;
23712;SDS011;12035;49.978;8.298;2024-01-07T13:31:48;10.65;;;6.35;;
23712;SDS011;12035;49.978;8.298;2024-01-07T13:36:45;8.18;;;4.63;;
23712;SDS011;12035;49.978;8.298;2024-01-07T13:41:42;10.20;;;5.18;;
23712;SDS011;12035;49.978;8.298;2024-01-07T13:46:41;8.18;;;4.70;;
23712;SDS011;12035;49.978;8.298;2024-01-07T13:51:38;8.45;;;4.85;;
23712;SDS011;12035;49.978;8.298;2024-01-07T13:56:36;7.43;;;4.20;;
23712;SDS011;12035;49.978;8.298;2024-01-07T14:01:36;7.22;;;4.07;;
23712;SDS011;12035;49.978;8.298;2024-01-07T14:06:35;7.15;;;4.32;;
23712;SDS011;12035;49.978;8.298;2024-01-07T14:11:32;8.73;;;4.93;;
23712;SDS011;12035;49.978;8.298;2024-01-07T14:16:29;7.85;;;4.55;;
23712;SDS011;12035;49.978;8.298;2024-01-07T14:21:27;8.82;;;4.70;;
23712;SDS011;12035;49.978;8.298;2024-01-07T14:26:26;9.45;;;4.63;;
23712;SDS011;12035;49.978;8.298;2024-01-07T14:31:23;7.82;;;4.82;;
23712;SDS011;12035;49.978;8.298;2024-01-07T14:36:20;9.02;;;5.45;;
23712;SDS011;12035;49.978;8.298;2024-01-07T14:41:18;8.15;;;4.65;;
23712;SDS011;12035;49.978;8.298;2024-01-07T14:46:16;10.52;;;4.97;;
23712;SDS011;12035;49.978;8.298;2024-01-07T14:51:13;7.40;;;4.40;;
23712;SDS011;12035;49.978;8.298;2024-01-07T14:56:10;9.25;;;5.07;;
23712;SDS011;12035;49.978;8.298;2024-01-07T15:01:07;9.77;;;5.22;;
23712;SDS011;12035;49.978;8.298;2024-01-07T15:06:06;6.85;;;3.83;;
23712;SDS011;12035;49.978;8.298;2024-01-07T15:11:04;6.03;;;3.88;;
23712;SDS011;12035;49.978;8.298;2024-01-07T15:16:01;6.40;;;3.13;;
23712;SDS011;12035;49.978;8.298;2024-01-07T15:20:58;5.57;;;3.10;;
23712;SDS011;12035;49.978;8.298;2024-01-07T15:25:56;7.72;;;4.18;;
23712;SDS011;12035;49.978;8.298;2024-01-07T15:30:53;7.57;;;3.88;;
23712;SDS011;12035;49.978;8.298;2024-01-07T15:35:51;5.25;;;3.65;;
23712;SDS011;12035;49.978;8.298;2024-01-07T15:40:48;5.18;;;3.03;;
23712;SDS011;12035;49.978;8.298;2024-01-07T15:45:46;5.63;;;3.10;;
23712;SDS011;12035;49.978;8.298;2024-01-07T15:50:43;3.85;;;2.20;;
23712;SDS011;12035;49.978;8.298;2024-01-07T15:55:40;4.45;;;2.20;;
23712;SDS011;12035;49.978;8.298;2024-01-07T16:00:37;5.68;;;2.50;;
23712;SDS011;12035;49.978;8.298;2024-01-07T16:05:35;5.32;;;2.67;;
23712;SDS011;12035;49.978;8.298;2024-01-07T16:10:32;4.82;;;2.33;;
23712;SDS011;12035;49.978;8.298;2024-01-07T16:15:29;4.00;;;2.05;;
23712;SDS011;12035;49.978;8.298;2024-01-07T16:20:26;3.42;;;1.90;;
23712;SDS011;12035;49.978;8.298;2024-01-07T16:25:25;4.35;;;1.70;;
23712;SDS011;12035;49.978;8.298;2024-01-07T16:30:22;3.53;;;2.08;;
23712;SDS011;12035;49.978;8.298;2024-01-07T16:35:19;3.63;;;1.95;;
23712;SDS011;12035;49.978;8.298;2024-01-07T16:40:16;4.10;;;1.98;;
23712;SDS011;12035;49.978;8.298;2024-01-07T16:45:14;6.00;;;2.30;;
23712;SDS011;12035;49.978;8.298;2024-01-07T16:50:11;4.20;;;1.95;;
23712;SDS011;12035;49.978;8.298;2024-01-07T16:55:08;4.85;;;2.17;;
23712;SDS011;12035;49.978;8.298;2024-01-07T17:00:06;4.30;;;2.78;;
23712;SDS011;12035;49.978;8.298;2024-01-07T17:05:06;3.50;;;1.67;;
23712;SDS011;12035;49.978;8.298;2024-01-07T17:10:05;4.63;;;1.63;;
23712;SDS011;12035;49.978;8.298;2024-01-07T17:15:04;3.60;;;1.70;;
23712;SDS011;12035;49.978;8.298;2024-01-07T17:20:02;3.78;;;2.03;;
23712;SDS011;12035;49.978;8.298;2024-01-07T17:25:01;2.92;;;1.52;;
23712;SDS011;12035;49.978;8.298;2024-01-07T17:29:58;3.30;;;1.60;;
23712;SDS011;12035;49.978;8.298;2024-01-07T17:34:55;3.13;;;1.92;;
23712;SDS011;12035;49.978;8.298;2024-01-07T17:39:52;3.30;;;1.70;;
23712;SDS011;12035;49.978;8.298;2024-01-07T17:44:51;2.38;;;1.50;;
23712;SDS011;12035;49.978;8.298;2024-01-07T17:49:48;2.70;;;1.40;;
23712;SDS011;12035;49.978;8.298;2024-01-07T17:54:45;5.75;;;2.95;;
23712;SDS011;12035;49.978;8.298;2024-01-07T17:59:45;2.47;;;1.40;;
23712;SDS011;12035;49.978;8.298;2024-01-07T18:04:43;4.93;;;2.30;;
23712;SDS011;12035;49.978;8.298;2024-01-07T18:09:40;4.57;;;1.90;;
23712;SDS011;12035;49.978;8.298;2024-01-07T18:14:37;3.97;;;2.13;;
23712;SDS011;12035;49.978;8.298;2024-01-07T18:19:34;5.30;;;2.72;;
23712;SDS011;12035;49.978;8.298;2024-01-07T18:24:32;4.45;;;2.35;;
23712;SDS011;12035;49.978;8.298;2024-01-07T18:29:29;10.20;;;3.80;;
23712;SDS011;12035;49.978;8.298;2024-01-07T18:34:26;5.57;;;2.63;;
23712;SDS011;12035;49.978;8.298;2024-01-07T18:39:23;6.40;;;2.47;;
23712;SDS011;12035;49.978;8.298;2024-01-07T18:44:21;33.70;;;13.38;;
23712;SDS011;12035;49.978;8.298;2024-01-07T18:49:20;5.20;;;1.60;;
23712;SDS011;12035;49.978;8.298;2024-01-07T18:54:17;3.58;;;1.88;;
23712;SDS011;12035;49.978;8.298;2024-01-07T18:59:16;2.90;;;1.50;;
23712;SDS011;12035;49.978;8.298;2024-01-07T19:04:15;4.40;;;1.42;;
23712;SDS011;12035;49.978;8.298;2024-01-07T19:09:12;2.15;;;1.33;;
23712;SDS011;12035;49.978;8.298;2024-01-07T19:14:11;3.20;;;1.25;;
23712;SDS011;12035;49.978;8.298;2024-01-07T19:19:08;2.10;;;1.08;;
23712;SDS011;12035;49.978;8.298;2024-01-07T19:24:08;2.45;;;1.23;;
23712;SDS011;12035;49.978;8.298;2024-01-07T19:29:05;3.17;;;1.30;;
23712;SDS011;12035;49.978;8.298;2024-01-07T19:34:02;2.50;;;1.10;;
23712;SDS011;12035;49.978;8.298;2024-01-07T19:38:59;4.88;;;1.42;;
23712;SDS011;12035;49.978;8.298;2024-01-07T19:44:02;3.88;;;2.03;;
23712;SDS011;12035;49.978;8.298;2024-01-07T19:49:00;3.67;;;1.60;;
23712;SDS011;12035;49.978;8.298;2024-01-07T19:54:00;3.38;;;1.30;;
23712;SDS011;12035;49.978;8.298;2024-01-07T19:58:57;1.98;;;1.10;;
23712;SDS011;12035;49.978;8.298;2024-01-07T20:03:55;2.22;;;1.00;;
23712;SDS011;12035;49.978;8.298;2024-01-07T20:08:52;2.28;;;1.27;;
23712;SDS011;12035;49.978;8.298;2024-01-07T20:13:49;2.25;;;1.20;;
23712;SDS011;12035;49.978;8.298;2024-01-07T20:18:47;2.20;;;1.10;;
23712;SDS011;12035;49.978;8.298;2024-01-07T20:23:47;2.45;;;1.15;;
23712;SDS011;12035;49.978;8.298;2024-01-07T20:28:44;3.47;;;1.40;;
23712;SDS011;12035;49.978;8.298;2024-01-07T20:33:44;2.03;;;1.08;;
23712;SDS011;12035;49.978;8.298;2024-01-07T20:38:41;2.55;;;1.00;;
23712;SDS011;12035;49.978;8.298;2024-01-07T20:43:40;2.70;;;1.00;;
23712;SDS011;12035;49.978;8.298;2024-01-07T20:48:38;5.22;;;1.25;;
23712;SDS011;12035;49.978;8.298;2024-01-07T20:53:35;2.30;;;1.20;;
23712;SDS011;12035;49.978;8.298;2024-01-07T20:58:33;2.60;;;1.35;;
23712;SDS011;12035;49.978;8.298;2024-01-07T21:03:32;2.13;;;1.00;;
23712;SDS011;12035;49.978;8.298;2024-01-07T21:08:29;2.65;;;1.17;;
23712;SDS011;12035;49.978;8.298;2024-01-07T21:13:28;2.20;;;1.13;;
23712;SDS011;12035;49.978;8.298;2024-01-07T21:18:26;2.08;;;1.17;;
23712;SDS011;12035;49.978;8.298;2024-01-07T21:23:25;2.10;;;1.10;;
23712;SDS011;12035;49.978;8.298;2024-01-07T21:28:22;3.05;;;0.95;;
23712;SDS011;12035;49.978;8.298;2024-01-07T21:33:19;1.92;;;1.10;;
23712;SDS011;12035;49.978;8.298;2024-01-07T21:38:18;2.55;;;1.02;;
23712;SDS011;12035;49.978;8.298;2024-01-07T21:43:16;2.30;;;1.15;;
23712;SDS011;12035;49.978;8.298;2024-01-07T21:48:13;2.05;;;1.10;;
23712;SDS011;12035;49.978;8.298;2024-01-07T21:53:10;2.97;;;1.23;;
23712;SDS011;12035;49.978;8.298;2024-01-07T21:58:07;2.08;;;1.10;;
23712;SDS011;12035;49.978;8.298;2024-01-07T22:03:05;2.78;;;1.02;;
23712;SDS011;12035;49.978;8.298;2024-01-07T22:08:02;2.13;;;0.90;;
23712;SDS011;12035;49.978;8.298;2024-01-07T22:13:00;2.20;;;0.90;;
23712;SDS011;12035;49.978;8.298;2024-01-07T22:17:57;3.33;;;1.00;;
23712;SDS011;12035;49.978;8.298;2024-01-07T22:22:56;2.33;;;1.00;;
23712;SDS011;12035;49.978;8.298;2024-01-07T22:27:53;1.83;;;0.90;;
23712;SDS011;12035;49.978;8.298;2024-01-07T22:32:50;2.75;;;0.77;;
23712;SDS011;12035;49.978;8.298;2024-01-07T22:37:47;1.80;;;0.80;;
23712;SDS011;12035;49.978;8.298;2024-01-07T22:42:47;1.58;;;0.80;;
23712;SDS011;12035;49.978;8.298;2024-01-07T22:47:44;2.05;;;0.70;;
23712;SDS011;12035;49.978;8.298;2024-01-07T22:52:41;1.33;;;0.63;;
23712;SDS011;12035;49.978;8.298;2024-01-07T22:57:38;2.55;;;0.73;;
23712;SDS011;12035;49.978;8.298;2024-01-07T23:02:36;1.83;;;0.85;;
23712;SDS011;12035;49.978;8.298;2024-01-07T23:07:33;1.38;;;0.70;;
23712;SDS011;12035;49.978;8.298;2024-01-07T23:12:30;1.40;;;0.73;;
23712;SDS011;12035;49.978;8.298;2024-01-07T23:17:27;1.80;;;0.70;;
23712;SDS011;12035;49.978;8.298;2024-01-07T23:22:26;1.02;;;0.60;;
23712;SDS011;12035;49.978;8.298;2024-01-07T23:27:23;2.08;;;0.70;;
23712;SDS011;12035;49.978;8.298;2024-01-07T23:32:21;1.15;;;0.60;;
23712;SDS011;12035;49.978;8.298;2024-01-07T23:37:18;1.52;;;0.60;;
23712;SDS011;12035;49.978;8.298;2024-01-07T23:42:16;1.40;;;0.70;;
23712;SDS011;12035;49.978;8.298;2024-01-07T23:47:13;0.82;;;0.55;;
23712;SDS011;12035;49.978;8.298;2024-01-07T23:52:10;1.50;;;0.60;;
23712;SDS011;12035;49.978;8.298;2024-01-07T23:57:07;1.10;;;0.40;;
